createdAt,value
2018-12-11T00:00:16.390Z,2.55
2018-12-11T00:01:16.428Z,2.55
2018-12-11T00:02:16.690Z,2.58
2018-12-11T00:03:16.953Z,2.57
2018-12-11T00:04:17.204Z,2.55
2018-12-11T00:05:16.471Z,2.60
2018-12-11T00:06:16.734Z,2.60
2018-12-11T00:07:17.004Z,2.57
2018-12-11T00:08:16.257Z,2.55
2018-12-11T00:09:16.511Z,2.54
2018-12-11T00:10:16.782Z,2.55
2018-12-11T00:11:16.844Z,2.58
2018-12-11T00:12:17.107Z,2.55
2018-12-11T00:13:16.375Z,2.48
2018-12-11T00:14:16.646Z,2.51
2018-12-11T00:15:16.902Z,2.45
2018-12-11T00:16:17.163Z,2.47
2018-12-11T00:17:16.428Z,2.48
2018-12-11T00:18:16.690Z,2.50
2018-12-11T00:19:16.959Z,2.51
2018-12-11T00:20:16.236Z,2.48
2018-12-11T00:21:16.307Z,2.48
2018-12-11T00:22:16.570Z,2.44
2018-12-11T00:23:16.834Z,2.51
2018-12-11T00:24:17.366Z,2.50
2018-12-11T00:25:16.639Z,2.48
2018-12-11T00:26:16.911Z,2.50
2018-12-11T00:27:17.177Z,2.47
2018-12-11T00:28:16.442Z,2.47
2018-12-11T00:29:16.706Z,2.50
2018-12-11T00:30:16.988Z,2.45
2018-12-11T00:31:17.053Z,2.47
2018-12-11T00:32:16.322Z,2.54
2018-12-11T00:33:16.593Z,2.47
2018-12-11T00:34:16.853Z,2.44
2018-12-11T00:35:17.130Z,2.44
2018-12-11T00:36:16.402Z,2.45
2018-12-11T00:37:16.680Z,2.51
2018-12-11T00:38:16.943Z,2.50
2018-12-11T00:39:17.203Z,2.53
2018-12-11T00:40:16.466Z,2.53
2018-12-11T00:41:16.528Z,2.47
2018-12-11T00:42:16.787Z,2.47
2018-12-11T00:43:17.048Z,2.47
2018-12-11T00:44:16.308Z,2.57
2018-12-11T00:45:16.573Z,2.60
2018-12-11T00:46:16.833Z,2.60
2018-12-11T00:47:17.095Z,2.61
2018-12-11T00:48:16.361Z,2.55
2018-12-11T00:49:16.630Z,2.55
2018-12-11T00:50:16.904Z,2.64
2018-12-11T00:51:16.965Z,2.65
2018-12-11T00:52:16.226Z,2.61
2018-12-11T00:53:16.498Z,2.65
2018-12-11T00:54:16.753Z,2.61
2018-12-11T00:55:17.015Z,2.68
2018-12-11T00:56:16.285Z,2.65
2018-12-11T00:57:16.555Z,2.67
2018-12-11T00:58:16.825Z,2.65
2018-12-11T00:59:17.086Z,2.61
2018-12-11T01:00:16.356Z,2.68
2018-12-11T01:01:16.414Z,2.68
2018-12-11T01:02:16.685Z,2.63
2018-12-11T01:03:16.960Z,2.63
2018-12-11T01:04:16.219Z,2.64
2018-12-11T01:05:16.534Z,2.57
2018-12-11T01:06:16.802Z,2.68
2018-12-11T01:07:17.073Z,2.67
2018-12-11T01:08:16.342Z,2.61
2018-12-11T01:09:16.607Z,2.63
2018-12-11T01:10:16.887Z,2.65
2018-12-11T01:11:16.939Z,2.61
2018-12-11T01:12:17.211Z,2.63
2018-12-11T01:13:16.479Z,2.57
2018-12-11T01:14:16.739Z,2.57
2018-12-11T01:15:17.011Z,2.57
2018-12-11T01:16:16.283Z,2.57
2018-12-11T01:17:16.556Z,2.57
2018-12-11T01:18:16.822Z,2.55
2018-12-11T01:19:17.086Z,2.53
2018-12-11T01:20:16.433Z,2.48
2018-12-11T01:21:16.494Z,2.53
2018-12-11T01:22:16.759Z,2.54
2018-12-11T01:23:17.026Z,2.57
2018-12-11T01:24:16.290Z,2.55
2018-12-11T01:25:16.565Z,2.60
2018-12-11T01:26:16.845Z,2.61
2018-12-11T01:27:17.107Z,2.55
2018-12-11T01:28:16.382Z,2.55
2018-12-11T01:29:16.664Z,2.57
2018-12-11T01:30:16.952Z,2.64
2018-12-11T01:31:16.990Z,2.64
2018-12-11T01:32:16.263Z,2.64
2018-12-11T01:33:16.529Z,2.64
2018-12-11T01:34:16.792Z,2.72
2018-12-11T01:35:17.060Z,2.65
2018-12-11T01:36:16.326Z,2.65
2018-12-11T01:37:16.600Z,2.68
2018-12-11T01:38:16.864Z,2.65
2018-12-11T01:39:17.124Z,2.68
2018-12-11T01:40:16.422Z,2.68
2018-12-11T01:41:16.469Z,2.63
2018-12-11T01:42:16.735Z,2.67
2018-12-11T01:43:16.997Z,2.71
2018-12-11T01:44:16.254Z,2.69
2018-12-11T01:45:16.521Z,2.67
2018-12-11T01:46:16.775Z,2.69
2018-12-11T01:47:17.041Z,2.65
2018-12-11T01:48:16.295Z,2.67
2018-12-11T01:49:16.578Z,2.74
2018-12-11T01:50:16.848Z,2.74
2018-12-11T01:51:16.931Z,2.75
2018-12-11T01:52:17.192Z,2.76
2018-12-11T01:53:16.450Z,2.76
2018-12-11T01:54:16.724Z,2.79
2018-12-11T01:55:16.988Z,2.79
2018-12-11T01:56:16.267Z,2.78
2018-12-11T01:57:16.532Z,2.81
2018-12-11T01:58:16.792Z,2.79
2018-12-11T01:59:17.058Z,2.79
2018-12-11T02:00:16.331Z,2.76
2018-12-11T02:01:16.414Z,2.82
2018-12-11T02:02:16.689Z,2.71
2018-12-11T02:03:16.957Z,2.75
2018-12-11T02:04:16.226Z,2.76
2018-12-11T02:05:16.510Z,2.81
2018-12-11T02:06:16.774Z,2.81
2018-12-11T02:07:17.047Z,2.82
2018-12-11T02:08:16.306Z,2.75
2018-12-11T02:09:16.588Z,2.76
2018-12-11T02:10:16.862Z,2.79
2018-12-11T02:11:16.919Z,2.78
2018-12-11T02:12:17.182Z,2.74
2018-12-11T02:13:16.448Z,2.74
2018-12-11T02:14:16.710Z,2.78
2018-12-11T02:15:16.992Z,2.74
2018-12-11T02:16:16.261Z,2.79
2018-12-11T02:17:16.525Z,2.72
2018-12-11T02:18:16.804Z,2.75
2018-12-11T02:19:17.062Z,2.78
2018-12-11T02:20:16.337Z,2.75
2018-12-11T02:21:16.414Z,2.76
2018-12-11T02:22:16.677Z,2.72
2018-12-11T02:23:16.935Z,2.72
2018-12-11T02:24:17.198Z,2.75
2018-12-11T02:25:16.466Z,2.71
2018-12-11T02:26:16.732Z,2.76
2018-12-11T02:27:17.000Z,2.72
2018-12-11T02:28:16.260Z,2.68
2018-12-11T02:29:16.527Z,2.69
2018-12-11T02:30:16.807Z,2.67
2018-12-11T02:31:16.849Z,2.72
2018-12-11T02:32:17.109Z,2.68
2018-12-11T02:33:16.379Z,2.67
2018-12-11T02:34:16.654Z,2.68
2018-12-11T02:35:16.928Z,2.71
2018-12-11T02:36:17.234Z,2.65
2018-12-11T02:37:16.499Z,2.71
2018-12-11T02:38:16.771Z,2.63
2018-12-11T02:39:17.044Z,2.65
2018-12-11T02:40:16.342Z,2.65
2018-12-11T02:41:16.372Z,2.67
2018-12-11T02:42:16.650Z,2.67
2018-12-11T02:43:16.927Z,2.69
2018-12-11T02:44:17.201Z,2.64
2018-12-11T02:45:16.479Z,2.63
2018-12-11T02:46:16.753Z,2.61
2018-12-11T02:47:17.110Z,2.68
2018-12-11T02:48:16.374Z,2.69
2018-12-11T02:49:16.639Z,2.71
2018-12-11T02:50:16.926Z,2.72
2018-12-11T02:51:16.998Z,2.68
2018-12-11T02:52:16.268Z,2.71
2018-12-11T02:53:16.551Z,2.69
2018-12-11T02:54:16.830Z,2.67
2018-12-11T02:55:17.105Z,2.69
2018-12-11T02:56:16.371Z,2.65
2018-12-11T02:57:16.627Z,2.71
2018-12-11T02:58:16.888Z,2.65
2018-12-11T02:59:17.165Z,2.68
2018-12-11T03:00:16.448Z,2.72
2018-12-11T03:01:16.503Z,2.64
2018-12-11T03:02:17.072Z,2.72
2018-12-11T03:03:16.335Z,2.72
2018-12-11T03:04:16.611Z,2.71
2018-12-11T03:05:16.888Z,2.75
2018-12-11T03:06:17.196Z,2.72
2018-12-11T03:07:16.495Z,2.78
2018-12-11T03:08:16.757Z,2.78
2018-12-11T03:09:17.022Z,2.81
2018-12-11T03:10:16.302Z,2.78
2018-12-11T03:11:16.355Z,2.78
2018-12-11T03:12:16.641Z,2.82
2018-12-11T03:13:16.919Z,2.79
2018-12-11T03:14:17.184Z,2.78
2018-12-11T03:15:16.460Z,2.78
2018-12-11T03:16:16.726Z,2.79
2018-12-11T03:17:17.003Z,2.84
2018-12-11T03:18:16.283Z,2.85
2018-12-11T03:19:16.552Z,2.81
2018-12-11T03:20:16.820Z,2.86
2018-12-11T03:21:16.889Z,2.81
2018-12-11T03:22:17.152Z,2.79
2018-12-11T03:23:16.425Z,2.79
2018-12-11T03:24:16.694Z,2.81
2018-12-11T03:25:16.989Z,2.82
2018-12-11T03:26:16.280Z,2.86
2018-12-11T03:27:16.549Z,2.86
2018-12-11T03:28:16.834Z,2.82
2018-12-11T03:29:17.099Z,2.91
2018-12-11T03:30:16.377Z,2.86
2018-12-11T03:31:16.414Z,2.85
2018-12-11T03:32:16.689Z,2.75
2018-12-11T03:33:16.975Z,2.82
2018-12-11T03:34:16.268Z,2.75
2018-12-11T03:35:16.540Z,2.75
2018-12-11T03:36:16.798Z,2.71
2018-12-11T03:37:17.059Z,2.68
2018-12-11T03:38:16.333Z,2.64
2018-12-11T03:39:16.611Z,2.65
2018-12-11T03:40:16.889Z,2.64
2018-12-11T03:41:16.969Z,2.61
2018-12-11T03:42:16.233Z,2.67
2018-12-11T03:43:16.500Z,2.60
2018-12-11T03:44:16.773Z,2.58
2018-12-11T03:45:17.037Z,2.55
2018-12-11T03:46:16.297Z,2.63
2018-12-11T03:47:16.558Z,2.61
2018-12-11T03:48:16.822Z,2.55
2018-12-11T03:49:17.092Z,2.53
2018-12-11T03:50:16.367Z,2.50
2018-12-11T03:51:16.429Z,2.55
2018-12-11T03:52:21.279Z,2.57
2018-12-11T03:53:17.407Z,2.55
2018-12-11T03:54:16.669Z,2.58
2018-12-11T03:55:16.934Z,2.51
2018-12-11T03:56:17.206Z,2.54
2018-12-11T03:57:16.464Z,2.50
2018-12-11T03:58:16.739Z,2.48
2018-12-11T03:59:17.002Z,2.48
2018-12-11T04:00:16.265Z,2.45
2018-12-11T04:01:16.341Z,2.41
2018-12-11T04:02:16.615Z,2.43
2018-12-11T04:03:16.869Z,2.45
2018-12-11T04:04:17.131Z,2.50
2018-12-11T04:05:16.431Z,2.41
2018-12-11T04:06:16.694Z,2.40
2018-12-11T04:07:16.954Z,2.40
2018-12-11T04:08:18.055Z,2.40
2018-12-11T04:09:16.329Z,2.37
2018-12-11T04:10:16.620Z,2.34
2018-12-11T04:11:16.668Z,2.43
2018-12-11T04:12:16.927Z,2.47
2018-12-11T04:13:17.191Z,2.43
2018-12-11T04:14:16.474Z,2.53
2018-12-11T04:15:16.738Z,2.48
2018-12-11T04:16:17.001Z,2.41
2018-12-11T04:17:16.275Z,2.41
2018-12-11T04:18:16.551Z,2.44
2018-12-11T04:19:16.819Z,2.43
2018-12-11T04:20:17.100Z,2.50
2018-12-11T04:21:17.150Z,2.44
2018-12-11T04:22:16.418Z,2.47
2018-12-11T04:23:16.677Z,2.45
2018-12-11T04:24:16.949Z,2.50
2018-12-11T04:25:16.221Z,2.48
2018-12-11T04:26:16.488Z,2.59
2018-12-11T04:27:16.752Z,2.50
2018-12-11T04:28:17.018Z,2.51
2018-12-11T04:29:16.279Z,2.53
2018-12-11T04:30:16.571Z,2.55
2018-12-11T04:31:16.627Z,2.53
2018-12-11T04:32:16.892Z,2.50
2018-12-11T04:33:17.160Z,2.58
2018-12-11T04:34:16.419Z,2.58
2018-12-11T04:35:16.724Z,2.50
2018-12-11T04:36:17.001Z,2.53
2018-12-11T04:37:16.266Z,2.57
2018-12-11T04:38:16.534Z,2.60
2018-12-11T04:39:16.811Z,2.55
2018-12-11T04:40:17.095Z,2.50
2018-12-11T04:41:17.142Z,2.53
2018-12-11T04:42:16.403Z,2.54
2018-12-11T04:43:16.657Z,2.43
2018-12-11T04:44:16.925Z,2.43
2018-12-11T04:45:17.203Z,2.36
2018-12-11T04:46:16.469Z,2.40
2018-12-11T04:47:16.738Z,2.41
2018-12-11T04:48:16.999Z,2.43
2018-12-11T04:49:16.263Z,2.51
2018-12-11T04:50:16.543Z,2.50
2018-12-11T04:51:16.598Z,2.48
2018-12-11T04:52:16.862Z,2.51
2018-12-11T04:53:17.129Z,2.47
2018-12-11T04:54:16.395Z,2.37
2018-12-11T04:55:16.679Z,2.37
2018-12-11T04:56:16.948Z,2.43
2018-12-11T04:57:17.209Z,2.47
2018-12-11T04:58:16.467Z,2.45
2018-12-11T04:59:16.727Z,2.47
2018-12-11T05:00:16.983Z,2.47
2018-12-11T05:01:17.070Z,2.47
2018-12-11T05:02:16.335Z,2.41
2018-12-11T05:03:16.610Z,2.38
2018-12-11T05:04:16.874Z,2.41
2018-12-11T05:05:17.144Z,2.48
2018-12-11T05:06:16.408Z,2.44
2018-12-11T05:07:16.667Z,2.48
2018-12-11T05:08:16.935Z,2.47
2018-12-11T05:09:17.205Z,2.47
2018-12-11T05:10:16.476Z,2.44
2018-12-11T05:11:16.548Z,2.47
2018-12-11T05:12:16.821Z,2.50
2018-12-11T05:13:17.088Z,2.44
2018-12-11T05:14:16.355Z,2.45
2018-12-11T05:15:16.626Z,2.43
2018-12-11T05:16:16.892Z,2.50
2018-12-11T05:17:17.153Z,2.45
2018-12-11T05:18:16.409Z,2.38
2018-12-11T05:19:16.677Z,2.40
2018-12-11T05:20:17.998Z,2.47
2018-12-11T05:21:17.011Z,2.51
2018-12-11T05:22:16.276Z,2.45
2018-12-11T05:23:16.533Z,2.44
2018-12-11T05:24:16.805Z,2.43
2018-12-11T05:25:17.073Z,2.48
2018-12-11T05:26:16.343Z,2.57
2018-12-11T05:27:16.612Z,2.55
2018-12-11T05:28:16.875Z,2.53
2018-12-11T05:29:17.146Z,2.53
2018-12-11T05:30:16.410Z,2.54
2018-12-11T05:31:16.463Z,2.51
2018-12-11T05:32:16.733Z,2.50
2018-12-11T05:33:16.998Z,2.48
2018-12-11T05:34:16.253Z,2.64
2018-12-11T05:35:16.513Z,2.57
2018-12-11T05:36:16.773Z,2.57
2018-12-11T05:37:17.050Z,2.57
2018-12-11T05:38:16.315Z,2.57
2018-12-11T05:39:16.585Z,2.53
2018-12-11T05:40:16.496Z,2.54
2018-12-11T05:41:16.542Z,2.55
2018-12-11T05:42:16.799Z,2.69
2018-12-11T05:43:17.075Z,2.69
2018-12-11T05:44:16.339Z,2.64
2018-12-11T05:45:16.602Z,2.68
2018-12-11T05:46:16.872Z,2.63
2018-12-11T05:47:17.136Z,2.63
2018-12-11T05:48:16.393Z,2.68
2018-12-11T05:49:16.647Z,2.72
2018-12-11T05:50:16.945Z,2.68
2018-12-11T05:51:17.001Z,2.68
2018-12-11T05:52:16.261Z,2.71
2018-12-11T05:53:16.532Z,2.68
2018-12-11T05:54:16.795Z,2.65
2018-12-11T05:55:17.056Z,2.65
2018-12-11T05:56:16.328Z,2.78
2018-12-11T05:57:16.583Z,2.78
2018-12-11T05:58:16.846Z,2.72
2018-12-11T05:59:17.109Z,2.76
2018-12-11T06:00:16.387Z,2.76
2018-12-11T06:01:16.442Z,2.71
2018-12-11T06:02:16.707Z,2.78
2018-12-11T06:03:16.977Z,2.76
2018-12-11T06:04:16.250Z,2.79
2018-12-11T06:05:16.513Z,2.79
2018-12-11T06:06:16.777Z,2.75
2018-12-11T06:07:17.042Z,2.78
2018-12-11T06:08:16.310Z,2.78
2018-12-11T06:09:16.588Z,2.85
2018-12-11T06:10:16.876Z,2.85
2018-12-11T06:11:16.938Z,2.79
2018-12-11T06:12:17.205Z,2.76
2018-12-11T06:13:16.482Z,2.85
2018-12-11T06:14:16.744Z,2.88
2018-12-11T06:15:17.003Z,2.82
2018-12-11T06:16:16.267Z,2.86
2018-12-11T06:17:16.538Z,2.82
2018-12-11T06:18:16.798Z,2.76
2018-12-11T06:19:17.061Z,2.78
2018-12-11T06:20:16.332Z,2.79
2018-12-11T06:21:16.424Z,2.76
2018-12-11T06:22:16.691Z,2.78
2018-12-11T06:23:16.954Z,2.81
2018-12-11T06:24:16.221Z,2.85
2018-12-11T06:25:16.488Z,2.82
2018-12-11T06:26:16.766Z,2.85
2018-12-11T06:27:17.023Z,2.92
2018-12-11T06:28:16.286Z,2.88
2018-12-11T06:29:16.558Z,2.89
2018-12-11T06:30:16.845Z,2.81
2018-12-11T06:31:16.895Z,2.84
2018-12-11T06:32:17.172Z,2.85
2018-12-11T06:33:16.429Z,2.88
2018-12-11T06:34:16.696Z,2.86
2018-12-11T06:35:16.986Z,2.79
2018-12-11T06:36:16.265Z,2.85
2018-12-11T06:37:16.552Z,2.75
2018-12-11T06:38:16.818Z,2.85
2018-12-11T06:39:17.077Z,2.78
2018-12-11T06:40:16.357Z,2.79
2018-12-11T06:41:16.407Z,2.79
2018-12-11T06:42:16.694Z,2.81
2018-12-11T06:43:16.962Z,2.86
2018-12-11T06:44:16.230Z,2.86
2018-12-11T06:45:16.495Z,2.88
2018-12-11T06:46:16.753Z,2.85
2018-12-11T06:47:17.013Z,2.81
2018-12-11T06:48:16.284Z,2.84
2018-12-11T06:49:16.548Z,2.78
2018-12-11T06:50:16.814Z,2.76
2018-12-11T06:51:16.870Z,2.75
2018-12-11T06:52:17.142Z,2.76
2018-12-11T06:53:16.402Z,2.78
2018-12-11T06:54:16.665Z,2.67
2018-12-11T06:55:16.939Z,2.72
2018-12-11T06:56:17.207Z,2.72
2018-12-11T06:57:16.470Z,2.68
2018-12-11T06:58:16.737Z,2.67
2018-12-11T06:59:16.998Z,2.68
2018-12-11T07:00:16.279Z,2.72
2018-12-11T07:01:16.344Z,2.69
2018-12-11T07:02:16.614Z,2.74
2018-12-11T07:03:16.880Z,2.69
2018-12-11T07:04:17.149Z,2.67
2018-12-11T07:05:16.425Z,2.58
2018-12-11T07:06:16.696Z,2.63
2018-12-11T07:07:16.965Z,2.68
2018-12-11T07:08:16.208Z,2.74
2018-12-11T07:09:16.481Z,2.65
2018-12-11T07:10:16.755Z,2.68
2018-12-11T07:11:16.807Z,2.61
2018-12-11T07:12:17.076Z,2.67
2018-12-11T07:13:16.351Z,2.65
2018-12-11T07:14:16.610Z,2.67
2018-12-11T07:15:16.864Z,2.68
2018-12-11T07:16:17.135Z,2.68
2018-12-11T07:17:16.406Z,2.64
2018-12-11T07:18:16.674Z,2.64
2018-12-11T07:19:16.946Z,2.55
2018-12-11T07:20:17.204Z,2.58
2018-12-11T07:21:16.279Z,2.60
2018-12-11T07:22:16.548Z,2.54
2018-12-11T07:23:16.814Z,2.51
2018-12-11T07:24:17.074Z,2.61
2018-12-11T07:25:16.362Z,2.54
2018-12-11T07:26:16.624Z,2.54
2018-12-11T07:27:16.889Z,2.45
2018-12-11T07:28:17.160Z,2.44
2018-12-11T07:29:16.420Z,2.44
2018-12-11T07:30:16.694Z,2.44
2018-12-11T07:31:16.733Z,2.45
2018-12-11T07:32:16.990Z,2.45
2018-12-11T07:33:16.263Z,2.50
2018-12-11T07:34:16.537Z,2.63
2018-12-11T07:35:16.806Z,2.57
2018-12-11T07:36:17.066Z,2.57
2018-12-11T07:37:16.325Z,2.48
2018-12-11T07:38:16.591Z,2.45
2018-12-11T07:39:16.854Z,2.51
2018-12-11T07:40:17.133Z,2.54
2018-12-11T07:41:17.204Z,2.41
2018-12-11T07:42:16.481Z,2.41
2018-12-11T07:43:16.745Z,2.54
2018-12-11T07:44:17.007Z,2.57
2018-12-11T07:45:16.287Z,2.61
2018-12-11T07:46:16.567Z,2.55
2018-12-11T07:47:16.824Z,2.58
2018-12-11T07:48:17.092Z,2.58
2018-12-11T07:49:16.359Z,2.60
2018-12-11T07:50:16.649Z,2.63
2018-12-11T07:51:16.687Z,2.63
2018-12-11T07:52:16.945Z,2.68
2018-12-11T07:53:17.213Z,2.72
2018-12-11T07:54:16.470Z,2.65
2018-12-11T07:55:16.750Z,2.63
2018-12-11T07:56:17.006Z,2.67
2018-12-11T07:57:16.272Z,2.61
2018-12-11T07:58:16.542Z,2.61
2018-12-11T07:59:16.803Z,2.65
2018-12-11T08:00:17.094Z,2.63
2018-12-11T08:01:17.136Z,2.64
2018-12-11T08:02:16.400Z,2.64
2018-12-11T08:03:16.668Z,2.65
2018-12-11T08:04:16.938Z,2.71
2018-12-11T08:05:17.203Z,2.75
2018-12-11T08:06:16.462Z,2.72
2018-12-11T08:07:16.727Z,2.69
2018-12-11T08:08:16.983Z,2.71
2018-12-11T08:09:16.230Z,2.67
2018-12-11T08:10:16.515Z,2.67
2018-12-11T08:11:16.570Z,2.72
2018-12-11T08:12:16.840Z,2.68
2018-12-11T08:13:17.109Z,2.65
2018-12-11T08:14:16.367Z,2.76
2018-12-11T08:15:16.631Z,2.69
2018-12-11T08:16:16.907Z,2.69
2018-12-11T08:17:17.442Z,2.79
2018-12-11T08:18:16.706Z,2.71
2018-12-11T08:19:16.966Z,2.79
2018-12-11T08:20:16.230Z,2.79
2018-12-11T08:21:16.499Z,2.75
2018-12-11T08:22:16.818Z,2.74
2018-12-11T08:23:17.051Z,2.79
2018-12-11T08:24:16.311Z,2.79
2018-12-11T08:25:16.576Z,2.78
2018-12-11T08:26:16.841Z,2.84
2018-12-11T08:27:17.108Z,2.84
2018-12-11T08:28:16.364Z,2.85
2018-12-11T08:29:16.624Z,2.82
2018-12-11T08:30:16.896Z,2.89
2018-12-11T08:31:16.937Z,2.95
2018-12-11T08:32:17.198Z,2.99
2018-12-11T08:33:16.462Z,3.02
2018-12-11T08:34:16.732Z,2.95
2018-12-11T08:35:17.006Z,2.98
2018-12-11T08:36:16.269Z,2.93
2018-12-11T08:37:16.536Z,2.91
2018-12-11T08:38:16.800Z,2.91
2018-12-11T08:39:17.060Z,2.96
2018-12-11T08:40:16.325Z,2.95
2018-12-11T08:41:16.383Z,2.96
2018-12-11T08:42:16.657Z,2.98
2018-12-11T08:43:16.917Z,3.00
2018-12-11T08:44:17.185Z,3.02
2018-12-11T08:45:16.467Z,3.03
2018-12-11T08:46:16.728Z,3.03
2018-12-11T08:47:16.987Z,3.03
2018-12-11T08:48:16.255Z,3.07
2018-12-11T08:49:16.514Z,3.06
2018-12-11T08:50:16.782Z,3.04
2018-12-11T08:51:16.853Z,3.06
2018-12-11T08:52:17.371Z,3.17
2018-12-11T08:53:16.634Z,3.14
2018-12-11T08:54:16.899Z,3.10
2018-12-11T08:55:17.165Z,3.14
2018-12-11T08:56:16.421Z,3.12
2018-12-11T08:57:16.686Z,3.17
2018-12-11T08:58:16.958Z,3.14
2018-12-11T08:59:16.221Z,3.16
2018-12-11T09:00:16.495Z,3.19
2018-12-11T09:01:16.560Z,3.16
2018-12-11T09:02:16.819Z,3.16
2018-12-11T09:03:17.082Z,3.17
2018-12-11T09:04:16.339Z,3.16
2018-12-11T09:05:16.596Z,3.24
2018-12-11T09:06:16.855Z,3.24
2018-12-11T09:07:17.135Z,3.17
2018-12-11T09:08:16.408Z,3.20
2018-12-11T09:09:16.670Z,3.27
2018-12-11T09:10:16.940Z,3.20
2018-12-11T09:11:16.977Z,3.24
2018-12-11T09:12:16.237Z,3.16
2018-12-11T09:13:16.491Z,3.16
2018-12-11T09:14:16.758Z,3.22
2018-12-11T09:15:17.022Z,3.27
2018-12-11T09:16:16.290Z,3.23
2018-12-11T09:17:16.553Z,3.23
2018-12-11T09:18:16.812Z,3.23
2018-12-11T09:19:17.058Z,3.13
2018-12-11T09:20:16.336Z,3.22
2018-12-11T09:21:16.402Z,3.20
2018-12-11T09:22:16.677Z,3.26
2018-12-11T09:23:16.944Z,3.26
2018-12-11T09:24:17.197Z,3.23
2018-12-11T09:25:16.454Z,3.30
2018-12-11T09:26:16.706Z,3.30
2018-12-11T09:27:16.935Z,3.22
2018-12-11T09:28:17.209Z,3.27
2018-12-11T09:29:16.472Z,3.31
2018-12-11T09:30:16.746Z,3.27
2018-12-11T09:31:16.795Z,3.28
2018-12-11T09:32:17.057Z,3.23
2018-12-11T09:33:16.324Z,3.26
2018-12-11T09:34:16.593Z,3.33
2018-12-11T09:35:16.854Z,3.28
2018-12-11T09:36:17.102Z,3.26
2018-12-11T09:37:16.379Z,3.36
2018-12-11T09:38:16.657Z,3.26
2018-12-11T09:39:16.909Z,3.26
2018-12-11T09:40:17.179Z,3.27
2018-12-11T09:41:16.253Z,3.31
2018-12-11T09:42:16.511Z,3.28
2018-12-11T09:43:16.779Z,3.22
2018-12-11T09:44:17.043Z,3.20
2018-12-11T09:45:16.312Z,3.22
2018-12-11T09:46:16.580Z,3.23
2018-12-11T09:47:16.841Z,3.23
2018-12-11T09:48:17.175Z,3.23
2018-12-11T09:49:16.445Z,3.34
2018-12-11T09:50:16.705Z,3.31
2018-12-11T09:51:17.821Z,3.33
2018-12-11T09:52:16.224Z,3.31
2018-12-11T09:53:16.494Z,3.33
2018-12-11T09:54:16.758Z,3.28
2018-12-11T09:55:17.022Z,3.37
2018-12-11T09:56:16.291Z,3.34
2018-12-11T09:57:16.593Z,3.30
2018-12-11T09:58:16.869Z,3.36
2018-12-11T09:59:23.224Z,3.34
2018-12-11T10:00:19.176Z,3.31
2018-12-11T10:01:17.033Z,3.36
2018-12-11T10:02:16.295Z,3.34
2018-12-11T10:03:16.562Z,3.31
2018-12-11T10:04:16.833Z,3.39
2018-12-11T10:05:17.104Z,3.30
2018-12-11T10:06:16.368Z,3.43
2018-12-11T10:07:16.631Z,3.40
2018-12-11T10:08:16.892Z,3.39
2018-12-11T10:09:17.146Z,3.41
2018-12-11T10:10:16.433Z,3.41
2018-12-11T10:11:16.496Z,3.46
2018-12-11T10:12:16.782Z,3.40
2018-12-11T10:13:17.042Z,3.40
2018-12-11T10:14:16.301Z,3.39
2018-12-11T10:15:16.576Z,3.43
2018-12-11T10:16:16.843Z,3.43
2018-12-11T10:17:17.113Z,3.47
2018-12-11T10:18:16.374Z,3.39
2018-12-11T10:19:16.631Z,3.39
2018-12-11T10:20:16.896Z,3.39
2018-12-11T10:21:16.974Z,3.36
2018-12-11T10:22:16.245Z,3.40
2018-12-11T10:23:16.514Z,3.40
2018-12-11T10:24:16.777Z,3.46
2018-12-11T10:25:17.050Z,3.39
2018-12-11T10:26:16.322Z,3.46
2018-12-11T10:27:16.592Z,3.44
2018-12-11T10:28:16.863Z,3.50
2018-12-11T10:29:17.120Z,3.50
2018-12-11T10:30:16.412Z,3.53
2018-12-11T10:31:16.446Z,3.55
2018-12-11T10:32:16.716Z,3.51
2018-12-11T10:33:16.969Z,3.53
2018-12-11T10:34:16.242Z,3.57
2018-12-11T10:35:16.507Z,3.47
2018-12-11T10:36:16.790Z,3.51
2018-12-11T10:37:17.047Z,3.55
2018-12-11T10:38:16.316Z,3.57
2018-12-11T10:39:16.587Z,3.57
2018-12-11T10:40:16.877Z,3.62
2018-12-11T10:41:16.938Z,3.62
2018-12-11T10:42:17.201Z,3.61
2018-12-11T10:43:16.468Z,3.61
2018-12-11T10:44:16.731Z,3.61
2018-12-11T10:45:17.001Z,3.55
2018-12-11T10:46:16.273Z,3.62
2018-12-11T10:47:16.537Z,3.69
2018-12-11T10:48:16.800Z,3.71
2018-12-11T10:49:17.103Z,3.65
2018-12-11T10:50:16.391Z,3.64
2018-12-11T10:51:16.450Z,3.62
2018-12-11T10:52:16.732Z,3.54
2018-12-11T10:53:17.015Z,3.53
2018-12-11T10:54:16.278Z,3.57
2018-12-11T10:55:16.542Z,3.62
2018-12-11T10:56:16.817Z,3.64
2018-12-11T10:57:17.078Z,3.67
2018-12-11T10:58:16.360Z,3.61
2018-12-11T10:59:16.627Z,3.57
2018-12-11T11:00:16.910Z,3.57
2018-12-11T11:01:16.955Z,3.64
2018-12-11T11:02:16.219Z,3.69
2018-12-11T11:03:16.492Z,3.68
2018-12-11T11:04:16.764Z,3.67
2018-12-11T11:05:17.040Z,3.60
2018-12-11T11:06:16.313Z,3.65
2018-12-11T11:07:16.574Z,3.65
2018-12-11T11:08:16.835Z,3.72
2018-12-11T11:09:17.104Z,3.74
2018-12-11T11:10:16.379Z,3.74
2018-12-11T11:11:16.414Z,3.86
2018-12-11T11:12:16.692Z,3.71
2018-12-11T11:13:17.035Z,3.67
2018-12-11T11:14:16.302Z,3.72
2018-12-11T11:15:16.574Z,3.71
2018-12-11T11:16:16.841Z,3.79
2018-12-11T11:17:17.227Z,3.85
2018-12-11T11:18:16.496Z,3.81
2018-12-11T11:19:16.759Z,3.85
2018-12-11T11:20:17.033Z,3.79
2018-12-11T11:21:17.085Z,3.88
2018-12-11T11:22:16.351Z,3.85
2018-12-11T11:23:16.622Z,3.86
2018-12-11T11:24:16.883Z,3.78
2018-12-11T11:25:17.150Z,3.79
2018-12-11T11:26:16.416Z,3.81
2018-12-11T11:27:16.673Z,3.83
2018-12-11T11:28:16.936Z,3.75
2018-12-11T11:29:17.203Z,3.75
2018-12-11T11:30:16.477Z,3.77
2018-12-11T11:31:16.544Z,3.81
2018-12-11T11:32:16.811Z,3.77
2018-12-11T11:33:17.071Z,3.82
2018-12-11T11:34:16.322Z,3.78
2018-12-11T11:35:16.590Z,3.83
2018-12-11T11:36:16.855Z,3.83
2018-12-11T11:37:17.132Z,3.98
2018-12-11T11:38:16.394Z,3.98
2018-12-11T11:39:16.682Z,3.93
2018-12-11T11:40:16.971Z,3.93
2018-12-11T11:41:16.992Z,3.82
2018-12-11T11:42:16.263Z,3.88
2018-12-11T11:43:16.531Z,3.93
2018-12-11T11:44:16.807Z,3.95
2018-12-11T11:45:17.083Z,3.89
2018-12-11T11:46:16.347Z,3.92
2018-12-11T11:47:16.613Z,3.99
2018-12-11T11:48:16.875Z,3.90
2018-12-11T11:49:17.129Z,3.98
2018-12-11T11:50:16.417Z,3.96
2018-12-11T11:51:16.470Z,3.95
2018-12-11T11:52:16.734Z,3.92
2018-12-11T11:53:17.010Z,3.96
2018-12-11T11:54:16.278Z,4.06
2018-12-11T11:55:16.540Z,4.06
2018-12-11T11:56:16.811Z,4.10
2018-12-11T11:57:17.097Z,4.03
2018-12-11T11:58:16.358Z,3.99
2018-12-11T11:59:16.627Z,4.02
2018-12-11T12:00:16.910Z,4.02
2018-12-11T12:01:16.946Z,4.03
2018-12-11T12:02:16.215Z,4.08
2018-12-11T12:03:16.475Z,4.03
2018-12-11T12:04:16.735Z,4.08
2018-12-11T12:05:16.997Z,3.99
2018-12-11T12:06:16.263Z,3.99
2018-12-11T12:07:16.525Z,3.96
2018-12-11T12:08:16.798Z,4.00
2018-12-11T12:09:17.069Z,4.02
2018-12-11T12:10:16.338Z,4.00
2018-12-11T12:11:16.433Z,4.00
2018-12-11T12:12:16.691Z,3.99
2018-12-11T12:13:16.953Z,3.95
2018-12-11T12:14:16.216Z,3.92
2018-12-11T12:15:16.497Z,4.02
2018-12-11T12:16:16.758Z,3.89
2018-12-11T12:17:17.035Z,3.86
2018-12-11T12:18:16.626Z,3.88
2018-12-11T12:19:16.895Z,3.85
2018-12-11T12:20:17.184Z,3.86
2018-12-11T12:21:16.227Z,3.83
2018-12-11T12:22:16.615Z,3.81
2018-12-11T12:23:16.888Z,3.90
2018-12-11T12:24:17.153Z,3.96
2018-12-11T12:25:16.425Z,3.88
2018-12-11T12:26:16.683Z,3.86
2018-12-11T12:27:16.950Z,3.90
2018-12-11T12:28:16.214Z,3.86
2018-12-11T12:29:16.502Z,3.90
2018-12-11T12:30:16.766Z,3.92
2018-12-11T12:31:16.841Z,3.98
2018-12-11T12:32:17.104Z,3.92
2018-12-11T12:33:16.371Z,3.92
2018-12-11T12:34:16.630Z,3.98
2018-12-11T12:35:16.900Z,3.89
2018-12-11T12:36:17.173Z,3.90
2018-12-11T12:37:16.440Z,3.96
2018-12-11T12:38:16.697Z,3.92
2018-12-11T12:39:16.963Z,3.95
2018-12-11T12:40:16.240Z,3.90
2018-12-11T12:41:16.325Z,3.93
2018-12-11T12:42:16.591Z,3.92
2018-12-11T12:43:16.864Z,3.98
2018-12-11T12:44:17.130Z,3.95
2018-12-11T12:45:16.385Z,3.93
2018-12-11T12:46:16.647Z,3.98
2018-12-11T12:47:16.924Z,3.98
2018-12-11T12:48:17.190Z,3.99
2018-12-11T12:49:16.452Z,3.95
2018-12-11T12:50:16.712Z,3.95
2018-12-11T12:51:16.769Z,3.92
2018-12-11T12:52:17.039Z,4.03
2018-12-11T12:53:16.314Z,3.96
2018-12-11T12:54:16.587Z,3.90
2018-12-11T12:55:16.850Z,3.81
2018-12-11T12:56:17.120Z,3.77
2018-12-11T12:57:16.382Z,3.78
2018-12-11T12:58:16.664Z,3.77
2018-12-11T12:59:16.929Z,3.78
2018-12-11T13:00:17.195Z,3.83
2018-12-11T13:01:16.271Z,3.78
2018-12-11T13:02:16.530Z,3.74
2018-12-11T13:03:16.787Z,3.79
2018-12-11T13:04:17.049Z,3.78
2018-12-11T13:05:16.330Z,3.81
2018-12-11T13:06:16.596Z,3.86
2018-12-11T13:07:16.862Z,3.82
2018-12-11T13:08:17.129Z,3.77
2018-12-11T13:09:16.389Z,3.78
2018-12-11T13:10:16.661Z,3.81
2018-12-11T13:11:16.701Z,3.69
2018-12-11T13:12:16.962Z,3.58
2018-12-11T13:13:16.229Z,3.49
2018-12-11T13:14:16.503Z,3.49
2018-12-11T13:15:16.782Z,3.43
2018-12-11T13:16:17.047Z,3.39
2018-12-11T13:17:16.311Z,3.43
2018-12-11T13:18:16.580Z,3.40